sensor_id;sensor_type;location;lat;lon;timestamp;P1;durP1;ratioP1;P2;durP2;ratioP2
46753;SDS011;32500;50.620;3.400;2023-03-31T00:02:20;73.72;;;50.28;;
46753;SDS011;32500;50.620;3.400;2023-03-31T00:04:47;74.20;;;50.15;;
46753;SDS011;32500;50.620;3.400;2023-03-31T00:07:23;73.80;;;50.35;;
46753;SDS011;32500;50.620;3.400;2023-03-31T00:09:49;74.82;;;50.35;;
46753;SDS011;32500;50.620;3.400;2023-03-31T00:12:19;73.43;;;50.03;;
46753;SDS011;32500;50.620;3.400;2023-03-31T00:14:45;75.13;;;50.10;;
46753;SDS011;32500;50.620;3.400;2023-03-31T00:17:11;74.32;;;50.45;;
46753;SDS011;32500;50.620;3.400;2023-03-31T00:19:37;72.78;;;50.15;;
46753;SDS011;32500;50.620;3.400;2023-03-31T00:22:05;72.53;;;50.05;;
46753;SDS011;32500;50.620;3.400;2023-03-31T00:24:32;74.70;;;50.08;;
46753;SDS011;32500;50.620;3.400;2023-03-31T00:26:59;73.65;;;50.13;;
46753;SDS011;32500;50.620;3.400;2023-03-31T00:29:25;74.97;;;50.47;;
46753;SDS011;32500;50.620;3.400;2023-03-31T00:31:51;74.00;;;50.03;;
46753;SDS011;32500;50.620;3.400;2023-03-31T00:34:17;73.60;;;50.30;;
46753;SDS011;32500;50.620;3.400;2023-03-31T00:36:42;75.47;;;50.05;;
46753;SDS011;32500;50.620;3.400;2023-03-31T00:39:12;73.60;;;50.25;;
46753;SDS011;32500;50.620;3.400;2023-03-31T00:41:42;73.90;;;50.20;;
46753;SDS011;32500;50.620;3.400;2023-03-31T00:44:10;73.38;;;50.10;;
46753;SDS011;32500;50.620;3.400;2023-03-31T00:49:13;74.05;;;49.97;;
46753;SDS011;32500;50.620;3.400;2023-03-31T00:52:03;73.05;;;49.65;;
46753;SDS011;32500;50.620;3.400;2023-03-31T00:54:37;73.40;;;50.35;;
46753;SDS011;32500;50.620;3.400;2023-03-31T00:57:06;74.30;;;49.75;;
46753;SDS011;32500;50.620;3.400;2023-03-31T00:59:36;73.85;;;50.25;;
46753;SDS011;32500;50.620;3.400;2023-03-31T01:02:04;72.68;;;49.72;;
46753;SDS011;32500;50.620;3.400;2023-03-31T01:04:33;73.65;;;50.03;;
46753;SDS011;32500;50.620;3.400;2023-03-31T01:07:09;74.18;;;50.13;;
46753;SDS011;32500;50.620;3.400;2023-03-31T01:09:44;73.22;;;50.15;;
46753;SDS011;32500;50.620;3.400;2023-03-31T01:12:11;74.75;;;50.33;;
46753;SDS011;32500;50.620;3.400;2023-03-31T01:14:39;72.80;;;49.80;;
46753;SDS011;32500;50.620;3.400;2023-03-31T01:17:05;74.05;;;49.72;;
46753;SDS011;32500;50.620;3.400;2023-03-31T01:25:17;73.45;;;49.70;;
46753;SDS011;32500;50.620;3.400;2023-03-31T01:41:41;72.80;;;49.85;;
46753;SDS011;32500;50.620;3.400;2023-03-31T01:47:18;72.78;;;49.83;;
46753;SDS011;32500;50.620;3.400;2023-03-31T01:50:32;71.30;;;49.47;;
46753;SDS011;32500;50.620;3.400;2023-03-31T01:52:56;72.03;;;49.80;;
46753;SDS011;32500;50.620;3.400;2023-03-31T01:55:25;72.65;;;50.15;;
46753;SDS011;32500;50.620;3.400;2023-03-31T01:58:01;72.32;;;49.95;;
46753;SDS011;32500;50.620;3.400;2023-03-31T02:00:34;71.90;;;49.90;;
46753;SDS011;32500;50.620;3.400;2023-03-31T02:03:13;72.57;;;50.00;;
46753;SDS011;32500;50.620;3.400;2023-03-31T02:05:54;72.18;;;49.95;;
46753;SDS011;32500;50.620;3.400;2023-03-31T02:08:23;72.55;;;50.03;;
46753;SDS011;32500;50.620;3.400;2023-03-31T02:10:55;71.93;;;49.53;;
46753;SDS011;32500;50.620;3.400;2023-03-31T02:13:22;74.40;;;49.78;;
46753;SDS011;32500;50.620;3.400;2023-03-31T02:15:52;72.75;;;49.50;;
46753;SDS011;32500;50.620;3.400;2023-03-31T02:18:22;70.93;;;49.58;;
46753;SDS011;32500;50.620;3.400;2023-03-31T02:20:51;70.40;;;49.28;;
46753;SDS011;32500;50.620;3.400;2023-03-31T02:23:23;71.68;;;49.45;;
46753;SDS011;32500;50.620;3.400;2023-03-31T02:25:54;72.88;;;49.75;;
46753;SDS011;32500;50.620;3.400;2023-03-31T02:28:36;71.28;;;49.38;;
46753;SDS011;32500;50.620;3.400;2023-03-31T02:33:34;71.25;;;49.42;;
46753;SDS011;32500;50.620;3.400;2023-03-31T02:36:00;70.95;;;49.60;;
46753;SDS011;32500;50.620;3.400;2023-03-31T02:38:26;71.40;;;49.53;;
46753;SDS011;32500;50.620;3.400;2023-03-31T02:40:55;71.07;;;49.70;;
46753;SDS011;32500;50.620;3.400;2023-03-31T02:43:21;71.50;;;49.53;;
46753;SDS011;32500;50.620;3.400;2023-03-31T02:45:48;70.68;;;49.65;;
46753;SDS011;32500;50.620;3.400;2023-03-31T02:59:04;70.85;;;49.38;;
46753;SDS011;32500;50.620;3.400;2023-03-31T03:07:33;73.35;;;49.45;;
46753;SDS011;32500;50.620;3.400;2023-03-31T03:10:18;72.57;;;49.85;;
46753;SDS011;32500;50.620;3.400;2023-03-31T03:15:37;69.88;;;49.42;;
46753;SDS011;32500;50.620;3.400;2023-03-31T03:18:10;71.68;;;49.63;;
46753;SDS011;32500;50.620;3.400;2023-03-31T03:20:36;70.15;;;49.13;;
46753;SDS011;32500;50.620;3.400;2023-03-31T03:23:04;70.72;;;49.33;;
46753;SDS011;32500;50.620;3.400;2023-03-31T03:25:30;70.43;;;49.30;;
46753;SDS011;32500;50.620;3.400;2023-03-31T03:27:55;70.88;;;49.30;;
46753;SDS011;32500;50.620;3.400;2023-03-31T03:30:21;71.32;;;49.25;;
46753;SDS011;32500;50.620;3.400;2023-03-31T03:32:47;69.55;;;49.30;;
46753;SDS011;32500;50.620;3.400;2023-03-31T03:35:12;69.47;;;48.92;;
46753;SDS011;32500;50.620;3.400;2023-03-31T03:37:38;70.72;;;49.15;;
46753;SDS011;32500;50.620;3.400;2023-03-31T03:40:04;71.68;;;49.58;;
46753;SDS011;32500;50.620;3.400;2023-03-31T03:42:31;71.40;;;49.33;;
46753;SDS011;32500;50.620;3.400;2023-03-31T03:44:57;71.60;;;49.30;;
46753;SDS011;32500;50.620;3.400;2023-03-31T03:47:23;71.40;;;49.25;;
46753;SDS011;32500;50.620;3.400;2023-03-31T03:49:48;70.50;;;49.45;;
46753;SDS011;32500;50.620;3.400;2023-03-31T03:52:14;69.85;;;49.00;;
46753;SDS011;32500;50.620;3.400;2023-03-31T03:54:41;70.72;;;49.65;;
46753;SDS011;32500;50.620;3.400;2023-03-31T03:57:06;71.07;;;49.25;;
46753;SDS011;32500;50.620;3.400;2023-03-31T03:59:32;71.38;;;49.53;;
46753;SDS011;32500;50.620;3.400;2023-03-31T04:01:58;70.30;;;49.35;;
46753;SDS011;32500;50.620;3.400;2023-03-31T04:04:23;70.35;;;49.50;;
46753;SDS011;32500;50.620;3.400;2023-03-31T04:06:49;69.38;;;49.10;;
46753;SDS011;32500;50.620;3.400;2023-03-31T04:09:15;73.38;;;49.53;;
46753;SDS011;32500;50.620;3.400;2023-03-31T04:11:40;69.63;;;49.38;;
46753;SDS011;32500;50.620;3.400;2023-03-31T04:14:06;69.65;;;49.05;;
46753;SDS011;32500;50.620;3.400;2023-03-31T04:16:32;69.80;;;49.33;;
46753;SDS011;32500;50.620;3.400;2023-03-31T04:18:58;69.75;;;49.22;;
46753;SDS011;32500;50.620;3.400;2023-03-31T04:21:28;70.25;;;49.13;;
46753;SDS011;32500;50.620;3.400;2023-03-31T04:23:54;70.80;;;49.13;;
46753;SDS011;32500;50.620;3.400;2023-03-31T04:26:26;70.63;;;49.40;;
46753;SDS011;32500;50.620;3.400;2023-03-31T04:29:02;70.10;;;48.95;;
46753;SDS011;32500;50.620;3.400;2023-03-31T04:31:29;69.78;;;49.20;;
46753;SDS011;32500;50.620;3.400;2023-03-31T04:33:55;70.53;;;49.53;;
46753;SDS011;32500;50.620;3.400;2023-03-31T04:36:25;71.28;;;49.25;;
46753;SDS011;32500;50.620;3.400;2023-03-31T04:38:50;71.40;;;49.40;;
46753;SDS011;32500;50.620;3.400;2023-03-31T04:41:18;71.47;;;49.42;;
46753;SDS011;32500;50.620;3.400;2023-03-31T04:43:48;70.65;;;49.38;;
46753;SDS011;32500;50.620;3.400;2023-03-31T04:46:13;71.05;;;49.28;;
46753;SDS011;32500;50.620;3.400;2023-03-31T04:48:39;69.93;;;49.40;;
46753;SDS011;32500;50.620;3.400;2023-03-31T04:51:05;70.40;;;49.50;;
46753;SDS011;32500;50.620;3.400;2023-03-31T04:53:32;73.97;;;49.60;;
46753;SDS011;32500;50.620;3.400;2023-03-31T04:55:58;70.90;;;49.42;;
46753;SDS011;32500;50.620;3.400;2023-03-31T04:58:23;70.00;;;49.30;;
46753;SDS011;32500;50.620;3.400;2023-03-31T05:00:50;70.70;;;49.35;;
46753;SDS011;32500;50.620;3.400;2023-03-31T05:03:17;71.82;;;49.70;;
46753;SDS011;32500;50.620;3.400;2023-03-31T05:05:43;73.57;;;49.03;;
46753;SDS011;32500;50.620;3.400;2023-03-31T05:08:09;74.55;;;49.13;;
46753;SDS011;32500;50.620;3.400;2023-03-31T05:10:34;70.28;;;49.22;;
46753;SDS011;32500;50.620;3.400;2023-03-31T05:13:00;71.53;;;49.35;;
46753;SDS011;32500;50.620;3.400;2023-03-31T05:15:26;72.13;;;49.38;;
46753;SDS011;32500;50.620;3.400;2023-03-31T05:17:51;72.13;;;49.55;;
46753;SDS011;32500;50.620;3.400;2023-03-31T05:20:18;70.90;;;49.35;;
46753;SDS011;32500;50.620;3.400;2023-03-31T05:22:44;71.43;;;49.63;;
46753;SDS011;32500;50.620;3.400;2023-03-31T05:25:11;71.85;;;49.78;;
46753;SDS011;32500;50.620;3.400;2023-03-31T05:27:43;73.78;;;49.47;;
46753;SDS011;32500;50.620;3.400;2023-03-31T05:30:16;73.53;;;49.92;;
46753;SDS011;32500;50.620;3.400;2023-03-31T05:32:41;71.57;;;49.65;;
46753;SDS011;32500;50.620;3.400;2023-03-31T05:35:08;73.28;;;49.67;;
46753;SDS011;32500;50.620;3.400;2023-03-31T05:37:34;76.50;;;50.28;;
46753;SDS011;32500;50.620;3.400;2023-03-31T05:40:01;75.63;;;50.22;;
46753;SDS011;32500;50.620;3.400;2023-03-31T05:42:29;74.53;;;49.95;;
46753;SDS011;32500;50.620;3.400;2023-03-31T05:44:55;72.57;;;49.90;;
46753;SDS011;32500;50.620;3.400;2023-03-31T05:47:21;74.13;;;49.72;;
46753;SDS011;32500;50.620;3.400;2023-03-31T05:49:47;73.50;;;49.85;;
46753;SDS011;32500;50.620;3.400;2023-03-31T05:52:12;76.47;;;50.15;;
46753;SDS011;32500;50.620;3.400;2023-03-31T05:54:38;78.20;;;49.78;;
46753;SDS011;32500;50.620;3.400;2023-03-31T05:57:04;73.13;;;50.10;;
46753;SDS011;32500;50.620;3.400;2023-03-31T05:59:30;73.15;;;50.00;;
46753;SDS011;32500;50.620;3.400;2023-03-31T06:01:56;75.18;;;50.30;;
46753;SDS011;32500;50.620;3.400;2023-03-31T06:04:22;73.43;;;49.90;;
46753;SDS011;32500;50.620;3.400;2023-03-31T06:06:48;76.75;;;50.22;;
46753;SDS011;32500;50.620;3.400;2023-03-31T06:09:14;74.60;;;50.13;;
46753;SDS011;32500;50.620;3.400;2023-03-31T06:11:41;77.28;;;50.20;;
46753;SDS011;32500;50.620;3.400;2023-03-31T06:14:07;74.30;;;49.95;;
46753;SDS011;32500;50.620;3.400;2023-03-31T06:16:32;72.78;;;49.63;;
46753;SDS011;32500;50.620;3.400;2023-03-31T06:18:58;72.78;;;49.97;;
46753;SDS011;32500;50.620;3.400;2023-03-31T06:21:24;76.63;;;50.25;;
46753;SDS011;32500;50.620;3.400;2023-03-31T06:23:50;74.50;;;49.97;;
46753;SDS011;32500;50.620;3.400;2023-03-31T06:26:19;75.35;;;50.08;;
46753;SDS011;32500;50.620;3.400;2023-03-31T06:28:45;73.20;;;49.70;;
46753;SDS011;32500;50.620;3.400;2023-03-31T06:31:12;74.65;;;50.08;;
46753;SDS011;32500;50.620;3.400;2023-03-31T06:33:40;73.60;;;49.95;;
46753;SDS011;32500;50.620;3.400;2023-03-31T06:36:07;74.93;;;50.17;;
46753;SDS011;32500;50.620;3.400;2023-03-31T06:38:34;75.80;;;49.70;;
46753;SDS011;32500;50.620;3.400;2023-03-31T06:41:02;73.22;;;50.22;;
46753;SDS011;32500;50.620;3.400;2023-03-31T06:43:28;75.05;;;50.28;;
46753;SDS011;32500;50.620;3.400;2023-03-31T06:45:54;76.75;;;50.70;;
46753;SDS011;32500;50.620;3.400;2023-03-31T06:48:23;72.32;;;49.70;;
46753;SDS011;32500;50.620;3.400;2023-03-31T06:50:50;74.25;;;50.55;;
46753;SDS011;32500;50.620;3.400;2023-03-31T06:53:17;73.90;;;50.20;;
46753;SDS011;32500;50.620;3.400;2023-03-31T06:55:43;74.20;;;50.47;;
46753;SDS011;32500;50.620;3.400;2023-03-31T06:58:09;77.50;;;50.13;;
46753;SDS011;32500;50.620;3.400;2023-03-31T07:00:35;75.00;;;50.50;;
46753;SDS011;32500;50.620;3.400;2023-03-31T07:03:02;73.45;;;50.67;;
46753;SDS011;32500;50.620;3.400;2023-03-31T07:05:29;78.75;;;50.28;;
46753;SDS011;32500;50.620;3.400;2023-03-31T07:07:55;73.72;;;50.38;;
46753;SDS011;32500;50.620;3.400;2023-03-31T07:10:23;75.18;;;50.28;;
46753;SDS011;32500;50.620;3.400;2023-03-31T07:12:50;75.32;;;50.70;;
46753;SDS011;32500;50.620;3.400;2023-03-31T07:15:16;73.97;;;50.83;;
46753;SDS011;32500;50.620;3.400;2023-03-31T07:17:41;73.68;;;50.13;;
46753;SDS011;32500;50.620;3.400;2023-03-31T07:20:08;75.05;;;50.47;;
46753;SDS011;32500;50.620;3.400;2023-03-31T07:25:05;74.13;;;50.22;;
46753;SDS011;32500;50.620;3.400;2023-03-31T07:27:32;76.75;;;50.85;;
46753;SDS011;32500;50.620;3.400;2023-03-31T07:29:58;78.18;;;51.10;;
46753;SDS011;32500;50.620;3.400;2023-03-31T07:32:24;76.25;;;51.03;;
46753;SDS011;32500;50.620;3.400;2023-03-31T07:34:49;79.22;;;51.53;;
46753;SDS011;32500;50.620;3.400;2023-03-31T07:37:15;80.57;;;51.67;;
46753;SDS011;32500;50.620;3.400;2023-03-31T07:39:41;81.78;;;51.90;;
46753;SDS011;32500;50.620;3.400;2023-03-31T07:42:06;82.45;;;51.70;;
46753;SDS011;32500;50.620;3.400;2023-03-31T07:44:35;83.20;;;52.25;;
46753;SDS011;32500;50.620;3.400;2023-03-31T07:47:01;86.95;;;52.67;;
46753;SDS011;32500;50.620;3.400;2023-03-31T07:49:30;83.55;;;52.58;;
46753;SDS011;32500;50.620;3.400;2023-03-31T07:51:57;83.95;;;52.40;;
46753;SDS011;32500;50.620;3.400;2023-03-31T07:54:22;84.30;;;52.13;;
46753;SDS011;32500;50.620;3.400;2023-03-31T07:56:48;83.95;;;53.00;;
46753;SDS011;32500;50.620;3.400;2023-03-31T07:59:14;82.35;;;53.25;;
46753;SDS011;32500;50.620;3.400;2023-03-31T08:01:40;83.50;;;52.22;;
46753;SDS011;32500;50.620;3.400;2023-03-31T08:04:06;83.25;;;52.53;;
46753;SDS011;32500;50.620;3.400;2023-03-31T08:06:31;81.57;;;52.72;;
46753;SDS011;32500;50.620;3.400;2023-03-31T08:08:57;83.38;;;52.58;;
46753;SDS011;32500;50.620;3.400;2023-03-31T08:11:23;81.57;;;51.92;;
46753;SDS011;32500;50.620;3.400;2023-03-31T08:13:50;80.07;;;52.50;;
46753;SDS011;32500;50.620;3.400;2023-03-31T08:16:15;82.43;;;52.67;;
46753;SDS011;32500;50.620;3.400;2023-03-31T08:18:41;82.85;;;52.50;;
46753;SDS011;32500;50.620;3.400;2023-03-31T08:21:07;78.75;;;52.10;;
46753;SDS011;32500;50.620;3.400;2023-03-31T08:23:36;81.90;;;52.08;;
46753;SDS011;32500;50.620;3.400;2023-03-31T08:26:09;87.75;;;52.47;;
46753;SDS011;32500;50.620;3.400;2023-03-31T08:28:44;81.35;;;52.15;;
46753;SDS011;32500;50.620;3.400;2023-03-31T08:31:10;83.53;;;52.08;;
46753;SDS011;32500;50.620;3.400;2023-03-31T08:33:36;85.63;;;52.42;;
46753;SDS011;32500;50.620;3.400;2023-03-31T08:36:03;82.60;;;51.75;;
46753;SDS011;32500;50.620;3.400;2023-03-31T08:38:32;80.20;;;52.17;;
46753;SDS011;32500;50.620;3.400;2023-03-31T08:41:03;90.85;;;53.38;;
46753;SDS011;32500;50.620;3.400;2023-03-31T08:43:32;81.88;;;52.40;;
46753;SDS011;32500;50.620;3.400;2023-03-31T08:46:03;86.22;;;52.22;;
46753;SDS011;32500;50.620;3.400;2023-03-31T08:48:29;84.05;;;52.05;;
46753;SDS011;32500;50.620;3.400;2023-03-31T08:51:13;85.22;;;52.30;;
46753;SDS011;32500;50.620;3.400;2023-03-31T08:56:27;88.95;;;52.55;;
46753;SDS011;32500;50.620;3.400;2023-03-31T08:58:57;84.47;;;52.25;;
46753;SDS011;32500;50.620;3.400;2023-03-31T09:06:40;83.97;;;52.65;;
46753;SDS011;32500;50.620;3.400;2023-03-31T09:12:14;83.07;;;52.10;;
46753;SDS011;32500;50.620;3.400;2023-03-31T09:15:00;84.40;;;52.25;;
46753;SDS011;32500;50.620;3.400;2023-03-31T09:17:49;79.32;;;52.13;;
46753;SDS011;32500;50.620;3.400;2023-03-31T09:20:17;86.47;;;52.95;;
46753;SDS011;32500;50.620;3.400;2023-03-31T09:23:41;89.32;;;52.50;;
46753;SDS011;32500;50.620;3.400;2023-03-31T09:25:40;81.80;;;52.03;;
46753;SDS011;32500;50.620;3.400;2023-03-31T09:28:12;85.10;;;52.38;;
46753;SDS011;32500;50.620;3.400;2023-03-31T09:30:47;86.05;;;52.55;;
46753;SDS011;32500;50.620;3.400;2023-03-31T09:33:17;88.28;;;52.92;;
46753;SDS011;32500;50.620;3.400;2023-03-31T09:35:59;87.63;;;52.15;;
46753;SDS011;32500;50.620;3.400;2023-03-31T09:38:25;86.43;;;52.80;;
46753;SDS011;32500;50.620;3.400;2023-03-31T09:40:58;83.43;;;52.20;;
46753;SDS011;32500;50.620;3.400;2023-03-31T09:43:27;85.57;;;52.28;;
46753;SDS011;32500;50.620;3.400;2023-03-31T09:45:54;89.65;;;52.53;;
46753;SDS011;32500;50.620;3.400;2023-03-31T09:48:22;85.03;;;52.17;;
46753;SDS011;32500;50.620;3.400;2023-03-31T09:51:03;88.63;;;52.60;;
46753;SDS011;32500;50.620;3.400;2023-03-31T09:53:46;88.65;;;52.47;;
46753;SDS011;32500;50.620;3.400;2023-03-31T09:56:31;85.63;;;52.28;;
46753;SDS011;32500;50.620;3.400;2023-03-31T09:59:02;87.18;;;52.22;;
46753;SDS011;32500;50.620;3.400;2023-03-31T10:01:28;87.00;;;52.45;;
46753;SDS011;32500;50.620;3.400;2023-03-31T10:03:54;82.00;;;52.40;;
46753;SDS011;32500;50.620;3.400;2023-03-31T10:06:21;84.47;;;52.67;;
46753;SDS011;32500;50.620;3.400;2023-03-31T10:11:20;83.05;;;52.38;;
46753;SDS011;32500;50.620;3.400;2023-03-31T10:14:32;84.13;;;52.17;;
46753;SDS011;32500;50.620;3.400;2023-03-31T10:16:46;82.38;;;52.05;;
46753;SDS011;32500;50.620;3.400;2023-03-31T10:19:21;83.63;;;52.67;;
46753;SDS011;32500;50.620;3.400;2023-03-31T10:24:47;87.38;;;52.47;;
46753;SDS011;32500;50.620;3.400;2023-03-31T10:27:29;89.78;;;52.33;;
46753;SDS011;32500;50.620;3.400;2023-03-31T10:29:57;82.35;;;52.28;;
46753;SDS011;32500;50.620;3.400;2023-03-31T10:32:28;82.97;;;52.28;;
46753;SDS011;32500;50.620;3.400;2023-03-31T10:34:56;81.97;;;52.45;;
46753;SDS011;32500;50.620;3.400;2023-03-31T10:37:36;86.45;;;52.25;;
46753;SDS011;32500;50.620;3.400;2023-03-31T10:40:16;85.50;;;52.22;;
46753;SDS011;32500;50.620;3.400;2023-03-31T10:42:46;83.18;;;52.53;;
46753;SDS011;32500;50.620;3.400;2023-03-31T10:48:03;81.80;;;52.17;;
46753;SDS011;32500;50.620;3.400;2023-03-31T10:50:32;83.28;;;51.97;;
46753;SDS011;32500;50.620;3.400;2023-03-31T10:53:00;83.32;;;51.55;;
46753;SDS011;32500;50.620;3.400;2023-03-31T10:55:29;85.88;;;52.10;;
46753;SDS011;32500;50.620;3.400;2023-03-31T10:58:02;87.13;;;52.28;;
46753;SDS011;32500;50.620;3.400;2023-03-31T11:06:12;84.75;;;52.05;;
46753;SDS011;32500;50.620;3.400;2023-03-31T11:11:42;85.13;;;52.05;;
46753;SDS011;32500;50.620;3.400;2023-03-31T11:19:27;85.35;;;51.80;;
46753;SDS011;32500;50.620;3.400;2023-03-31T11:32:51;84.13;;;51.95;;
46753;SDS011;32500;50.620;3.400;2023-03-31T11:35:36;89.55;;;52.15;;
46753;SDS011;32500;50.620;3.400;2023-03-31T11:38:37;81.20;;;51.85;;
46753;SDS011;32500;50.620;3.400;2023-03-31T11:41:11;81.75;;;51.92;;
46753;SDS011;32500;50.620;3.400;2023-03-31T11:43:43;89.00;;;52.63;;
46753;SDS011;32500;50.620;3.400;2023-03-31T11:46:16;83.63;;;51.75;;
46753;SDS011;32500;50.620;3.400;2023-03-31T11:48:53;81.38;;;51.47;;
46753;SDS011;32500;50.620;3.400;2023-03-31T11:51:29;85.80;;;51.55;;
46753;SDS011;32500;50.620;3.400;2023-03-31T11:54:25;85.50;;;51.80;;
46753;SDS011;32500;50.620;3.400;2023-03-31T11:56:56;83.05;;;51.90;;
46753;SDS011;32500;50.620;3.400;2023-03-31T11:59:26;86.93;;;51.75;;
46753;SDS011;32500;50.620;3.400;2023-03-31T12:04:47;78.70;;;51.53;;
46753;SDS011;32500;50.620;3.400;2023-03-31T12:10:19;83.85;;;51.83;;
46753;SDS011;32500;50.620;3.400;2023-03-31T12:15:22;82.90;;;51.83;;
46753;SDS011;32500;50.620;3.400;2023-03-31T12:18:02;80.75;;;51.75;;
46753;SDS011;32500;50.620;3.400;2023-03-31T12:20:54;76.72;;;50.85;;
46753;SDS011;32500;50.620;3.400;2023-03-31T12:23:22;78.45;;;51.28;;
46753;SDS011;32500;50.620;3.400;2023-03-31T12:25:56;77.13;;;51.20;;
46753;SDS011;32500;50.620;3.400;2023-03-31T12:28:42;75.50;;;50.85;;
46753;SDS011;32500;50.620;3.400;2023-03-31T12:31:10;76.68;;;51.10;;
46753;SDS011;32500;50.620;3.400;2023-03-31T12:33:45;75.45;;;50.88;;
46753;SDS011;32500;50.620;3.400;2023-03-31T12:36:32;81.65;;;51.45;;
46753;SDS011;32500;50.620;3.400;2023-03-31T12:52:06;75.57;;;50.90;;
46753;SDS011;32500;50.620;3.400;2023-03-31T12:57:23;75.65;;;50.75;;
46753;SDS011;32500;50.620;3.400;2023-03-31T13:03:34;84.00;;;51.15;;
46753;SDS011;32500;50.620;3.400;2023-03-31T13:05:58;78.13;;;50.95;;
46753;SDS011;32500;50.620;3.400;2023-03-31T13:11:38;75.70;;;50.55;;
46753;SDS011;32500;50.620;3.400;2023-03-31T13:14:21;76.55;;;50.50;;
46753;SDS011;32500;50.620;3.400;2023-03-31T13:33:23;76.93;;;50.90;;
46753;SDS011;32500;50.620;3.400;2023-03-31T13:36:04;75.68;;;50.90;;
46753;SDS011;32500;50.620;3.400;2023-03-31T13:38:54;75.15;;;50.70;;
46753;SDS011;32500;50.620;3.400;2023-03-31T13:52:08;73.78;;;50.17;;
46753;SDS011;32500;50.620;3.400;2023-03-31T13:57:38;73.43;;;50.17;;
46753;SDS011;32500;50.620;3.400;2023-03-31T14:06:22;73.75;;;50.35;;
46753;SDS011;32500;50.620;3.400;2023-03-31T14:08:56;73.25;;;50.17;;
46753;SDS011;32500;50.620;3.400;2023-03-31T14:11:25;73.60;;;50.33;;
46753;SDS011;32500;50.620;3.400;2023-03-31T14:16:39;75.10;;;50.25;;
46753;SDS011;32500;50.620;3.400;2023-03-31T14:19:33;76.57;;;50.28;;
46753;SDS011;32500;50.620;3.400;2023-03-31T14:22:18;74.07;;;50.40;;
46753;SDS011;32500;50.620;3.400;2023-03-31T14:32:37;74.18;;;50.33;;
46753;SDS011;32500;50.620;3.400;2023-03-31T14:35:30;74.97;;;50.30;;
46753;SDS011;32500;50.620;3.400;2023-03-31T14:38:04;72.43;;;50.20;;
46753;SDS011;32500;50.620;3.400;2023-03-31T14:40:41;72.88;;;50.10;;
46753;SDS011;32500;50.620;3.400;2023-03-31T14:43:19;76.38;;;50.53;;
46753;SDS011;32500;50.620;3.400;2023-03-31T14:45:46;75.18;;;50.28;;
46753;SDS011;32500;50.620;3.400;2023-03-31T14:48:17;74.78;;;50.65;;
46753;SDS011;32500;50.620;3.400;2023-03-31T14:50:43;74.72;;;50.75;;
46753;SDS011;32500;50.620;3.400;2023-03-31T14:53:21;76.65;;;50.50;;
46753;SDS011;32500;50.620;3.400;2023-03-31T14:55:48;74.00;;;50.50;;
46753;SDS011;32500;50.620;3.400;2023-03-31T14:58:36;75.70;;;50.42;;
46753;SDS011;32500;50.620;3.400;2023-03-31T15:01:03;73.20;;;50.28;;
46753;SDS011;32500;50.620;3.400;2023-03-31T15:03:32;74.57;;;50.53;;
46753;SDS011;32500;50.620;3.400;2023-03-31T15:05:59;78.93;;;50.45;;
46753;SDS011;32500;50.620;3.400;2023-03-31T15:08:27;74.88;;;50.65;;
46753;SDS011;32500;50.620;3.400;2023-03-31T15:10:55;75.47;;;50.45;;
46753;SDS011;32500;50.620;3.400;2023-03-31T15:13:31;74.90;;;50.42;;
46753;SDS011;32500;50.620;3.400;2023-03-31T15:16:17;75.13;;;50.28;;
46753;SDS011;32500;50.620;3.400;2023-03-31T15:18:53;78.53;;;50.55;;
46753;SDS011;32500;50.620;3.400;2023-03-31T15:21:22;82.38;;;50.83;;
46753;SDS011;32500;50.620;3.400;2023-03-31T15:23:50;77.10;;;50.90;;
46753;SDS011;32500;50.620;3.400;2023-03-31T15:26:17;73.65;;;50.38;;
46753;SDS011;32500;50.620;3.400;2023-03-31T15:28:57;75.38;;;50.65;;
46753;SDS011;32500;50.620;3.400;2023-03-31T15:31:36;75.75;;;50.42;;
46753;SDS011;32500;50.620;3.400;2023-03-31T15:34:14;77.03;;;50.80;;
46753;SDS011;32500;50.620;3.400;2023-03-31T15:36:50;75.95;;;50.67;;
46753;SDS011;32500;50.620;3.400;2023-03-31T15:41:47;75.40;;;50.42;;
46753;SDS011;32500;50.620;3.400;2023-03-31T15:44:34;73.85;;;50.63;;
46753;SDS011;32500;50.620;3.400;2023-03-31T15:47:23;77.32;;;50.70;;
46753;SDS011;32500;50.620;3.400;2023-03-31T15:49:56;77.22;;;51.10;;
46753;SDS011;32500;50.620;3.400;2023-03-31T15:52:47;78.63;;;50.85;;
46753;SDS011;32500;50.620;3.400;2023-03-31T15:55:27;74.57;;;50.53;;
46753;SDS011;32500;50.620;3.400;2023-03-31T15:58:04;75.07;;;50.65;;
46753;SDS011;32500;50.620;3.400;2023-03-31T16:03:33;76.25;;;51.17;;
46753;SDS011;32500;50.620;3.400;2023-03-31T16:06:08;75.95;;;51.17;;
46753;SDS011;32500;50.620;3.400;2023-03-31T16:08:47;76.57;;;50.60;;
46753;SDS011;32500;50.620;3.400;2023-03-31T16:11:23;76.38;;;50.90;;
46753;SDS011;32500;50.620;3.400;2023-03-31T16:13:59;74.72;;;50.90;;
46753;SDS011;32500;50.620;3.400;2023-03-31T16:16:30;77.72;;;51.08;;
46753;SDS011;32500;50.620;3.400;2023-03-31T16:19:04;80.75;;;50.60;;
46753;SDS011;32500;50.620;3.400;2023-03-31T16:21:43;79.20;;;50.95;;
46753;SDS011;32500;50.620;3.400;2023-03-31T16:24:14;78.72;;;50.92;;
46753;SDS011;32500;50.620;3.400;2023-03-31T16:26:40;76.03;;;50.78;;
46753;SDS011;32500;50.620;3.400;2023-03-31T16:29:06;77.40;;;50.45;;
46753;SDS011;32500;50.620;3.400;2023-03-31T16:31:33;76.10;;;50.35;;
46753;SDS011;32500;50.620;3.400;2023-03-31T16:34:02;74.80;;;50.67;;
46753;SDS011;32500;50.620;3.400;2023-03-31T16:36:30;74.28;;;50.55;;
46753;SDS011;32500;50.620;3.400;2023-03-31T16:38:56;77.82;;;50.97;;
46753;SDS011;32500;50.620;3.400;2023-03-31T16:41:23;77.60;;;50.90;;
46753;SDS011;32500;50.620;3.400;2023-03-31T16:43:51;78.53;;;50.88;;
46753;SDS011;32500;50.620;3.400;2023-03-31T16:46:18;75.05;;;50.63;;
46753;SDS011;32500;50.620;3.400;2023-03-31T16:48:44;77.60;;;51.22;;
46753;SDS011;32500;50.620;3.400;2023-03-31T16:51:10;78.00;;;51.30;;
46753;SDS011;32500;50.620;3.400;2023-03-31T16:53:36;77.07;;;50.90;;
46753;SDS011;32500;50.620;3.400;2023-03-31T16:56:03;75.20;;;50.85;;
46753;SDS011;32500;50.620;3.400;2023-03-31T16:58:31;77.47;;;51.03;;
46753;SDS011;32500;50.620;3.400;2023-03-31T17:00:58;74.93;;;50.90;;
46753;SDS011;32500;50.620;3.400;2023-03-31T17:03:24;75.78;;;50.88;;
46753;SDS011;32500;50.620;3.400;2023-03-31T17:05:51;80.25;;;51.30;;
46753;SDS011;32500;50.620;3.400;2023-03-31T17:08:21;77.13;;;51.22;;
46753;SDS011;32500;50.620;3.400;2023-03-31T17:10:52;75.47;;;51.20;;
46753;SDS011;32500;50.620;3.400;2023-03-31T17:13:23;77.28;;;51.35;;
46753;SDS011;32500;50.620;3.400;2023-03-31T17:15:49;78.82;;;51.15;;
46753;SDS011;32500;50.620;3.400;2023-03-31T17:18:18;78.10;;;51.38;;
46753;SDS011;32500;50.620;3.400;2023-03-31T17:20:44;80.13;;;51.28;;
46753;SDS011;32500;50.620;3.400;2023-03-31T17:23:09;76.22;;;51.05;;
46753;SDS011;32500;50.620;3.400;2023-03-31T17:25:35;76.15;;;51.05;;
46753;SDS011;32500;50.620;3.400;2023-03-31T17:28:04;78.50;;;51.13;;
46753;SDS011;32500;50.620;3.400;2023-03-31T17:30:30;78.00;;;51.13;;
46753;SDS011;32500;50.620;3.400;2023-03-31T17:32:59;77.70;;;50.88;;
46753;SDS011;32500;50.620;3.400;2023-03-31T17:35:24;79.32;;;51.35;;
46753;SDS011;32500;50.620;3.400;2023-03-31T17:37:50;77.72;;;50.97;;